Main page
METAR-TAF:

METAR-TAF

Airports :

Vardø Airport. Svartnes

Vardø, Norway

latitude: 70-21N, longitude: 031-03E, elevation: 12 m

Current weather observation

The report was made 17 hours and 7 minutes ago, at 09:20 UTC
Wind 16 kt from the Southeast
Temperature -2°C
Humidity 86%
Pressure 984 hPa
Visibility 10 km or more
Few clouds at a height of 1600 ft
Scattered clouds at a height of 2000 ft
Broken clouds at a height of 2700 ft
showers in vicinity

METAR: ENSS 070920Z 14016KT 9999 VCSH FEW016 SCT020 BKN027 M02/M04 Q0984 RMK WIND 500FT 12013KT

Time: 03:27 (02:27 UTC)


TAF: missing

Weather observations and forecasts of more than 4000 airports (METAR and TAF reports).

The available stations are represented by yellow and red dots on the map.

Hover mouse over dot to see the name of the station.

Then click to see weather observations and forecasts.

To change the map : click on the green buttons with a black cross to zoom in, on the green button with a dash to zoom out, or on the green arrows for adjacent maps.


METAR-TAF: